Latest Weather Observations for Nullo Mountain

IDN60801

Issued at 10:03 pm EDT Tuesday 24 January 2017 (issued every 30 minutes, with the page automatically refreshed every 10 minutes)

About weather observations | Map of weather stations | Latest weather observations for NSW | Other Formats
Station Details ID: 062100 Name: NULLO MOUNTAIN AWS Lat: -32.72 Lon: 150.23 Height: 1130.0 m
Data from the previous 72 hours. | See also: Recent months at Nullo Mountain
Date/Time
EDT
Temp
°C
App
Temp
°C
Dew
Point
°C
Rel
Hum
%
Delta-T
°C
Wind Press
QNH
hPa
Press
MSL
hPa
Rain since
9am
mm
Dir  Spd
km/h
Gust
km/h
Spd
kts
Gust
kts
24/10:00pm 21.4 22.7 19.3 88 1.4 ESE 11 13 6 7 - - -
24/09:30pm 23.8 25.8 19.1 75 3.1 SE 7 13 4 7 - - 0.0
24/09:00pm 24.8 26.7 19.0 70 3.9 S 7 9 4 5 - - 0.0
24/08:30pm 24.0 26.4 18.9 73 3.4 SSE 4 6 2 3 - - 0.0
24/08:00pm 25.5 28.0 18.2 64 4.8 SSW 2 4 1 2 - - 0.0
24/07:30pm 26.1 28.4 18.5 63 5.1 SW 4 7 2 4 - - 0.0
24/07:00pm 26.7 28.3 18.3 60 5.6 WSW 7 11 4 6 - - 0.0
24/06:30pm 26.9 28.0 17.9 57 5.9 W 9 19 5 10 - - 0.0
24/06:00pm 27.0 28.5 18.0 58 6.0 W 7 15 4 8 - - 0.0
24/05:30pm 27.3 28.4 18.0 56 6.2 W 9 22 5 12 - - 0.0
24/05:00pm 27.4 27.7 17.8 55 6.3 W 13 24 7 13 - - 0.0
24/04:30pm 27.8 28.6 18.2 56 6.4 W 11 22 6 12 - - 0.0
24/04:00pm 28.0 28.4 18.1 55 6.6 WNW 13 24 7 13 - - 0.0
24/03:30pm 28.1 28.4 17.9 54 6.8 WNW 13 30 7 16 - - 0.0
24/03:00pm 27.9 28.1 18.6 57 6.2 NW 15 32 8 17 - - 0.0
24/02:30pm 28.0 28.3 18.7 57 6.2 WNW 15 32 8 17 - - 0.0
24/02:00pm 26.5 26.5 18.1 60 5.6 NW 15 30 8 16 - - 0.0
24/01:30pm 25.6 25.4 18.5 65 4.7 NW 17 28 9 15 - - 0.0
24/01:00pm 26.1 26.6 19.2 65 4.6 NW 15 28 8 15 - - 0.0
24/12:30pm 25.7 25.7 18.9 66 4.5 WNW 17 32 9 17 - - 0.0
24/12:00pm 23.9 22.6 17.2 66 4.3 NW 20 37 11 20 - - 0.0
24/11:30am 25.8 24.9 16.9 58 5.8 NW 17 28 9 15 - - 0.0
24/11:00am 24.2 22.9 15.9 59 5.3 NW 17 33 9 18 - - 0.0
24/10:30am 25.1 23.9 16.0 57 5.8 NW 17 32 9 17 - - 0.0
24/10:00am 24.8 23.2 14.9 54 6.2 NW 17 37 9 20 - - 0.0
24/09:30am 23.3 21.4 14.3 57 5.6 NW 17 32 9 17 - - 0.0
24/09:00am 22.7 21.0 13.5 56 5.6 NW 15 28 8 15 - - 0.0
24/08:30am 21.4 19.0 12.5 57 5.3 NW 17 35 9 19 - - 0.0
24/08:00am 22.2 19.8 12.7 55 5.7 NNW 17 30 9 16 - - 0.0
24/07:30am 21.9 19.8 12.5 55 5.6 NNW 15 30 8 16 - - 0.0
24/07:00am 21.7 18.8 12.3 55 5.6 NNW 19 32 10 17 - - 0.0
24/06:30am 21.9 19.8 12.5 55 5.6 NW 15 26 8 14 - - 0.0
24/06:00am 22.3 20.2 12.5 53 5.9 NW 15 28 8 15 - - 0.0
24/05:30am 22.5 20.4 12.4 52 6.0 NW 15 30 8 16 - - 0.0
24/05:00am 22.4 20.3 12.4 53 6.0 NNW 15 28 8 15 - - 0.0
24/04:30am 22.4 20.4 12.6 54 5.9 NNW 15 26 8 14 - - 0.0
24/04:00am 22.7 19.9 12.6 53 6.1 NNW 19 33 10 18 - - 0.0
24/03:30am 22.6 20.7 13.1 55 5.7 NNW 15 26 8 14 - - 0.0
24/03:00am 23.0 20.2 13.2 54 5.9 NNW 20 32 11 17 - - 0.0
24/02:30am 22.8 20.7 13.6 56 5.6 NNW 17 26 9 14 - - 0.0
24/02:00am 23.0 20.6 13.8 56 5.6 NNW 19 32 10 17 - - 0.0
24/01:30am 23.2 21.2 13.9 56 5.7 NNW 17 26 9 14 - - 0.0
24/01:00am 23.2 21.2 13.9 56 5.7 NNW 17 28 9 15 - - 0.0
24/12:30am 23.7 21.9 14.4 56 5.8 NNW 17 33 9 18 - - 0.0
24/12:00am 23.6 21.4 14.3 56 5.8 N 19 28 10 15 - - 0.0
 
Date/Time
EDT
Temp
°C
App
Temp
°C
Dew
Point
°C
Rel
Hum
%
Delta-T
°C
Wind Press
QNH
hPa
Press
MSL
hPa
Rain since
9am
mm
Dir  Spd
km/h
Gust
km/h
Spd
kts
Gust
kts
23/11:30pm 23.3 21.6 14.6 58 5.4 N 17 24 9 13 - - 0.0
23/11:00pm 23.1 22.4 14.4 58 5.4 N 11 20 6 11 - - 0.0
23/10:30pm 23.4 22.3 14.4 57 5.6 N 13 20 7 11 - - 0.0
23/10:00pm 23.7 22.7 14.7 57 5.6 N 13 20 7 11 - - 0.0
23/09:30pm 24.1 23.6 14.8 56 5.8 N 11 19 6 10 - - 0.0
23/09:00pm 24.2 23.7 14.9 56 5.8 N 11 17 6 9 - - 0.0
23/08:30pm 24.3 24.0 14.4 54 6.2 N 9 13 5 7 - - 0.0
23/08:00pm 24.8 24.5 14.3 52 6.5 N 9 13 5 7 - - 0.0
23/07:30pm 26.2 25.9 14.3 48 7.4 N 9 15 5 8 - - 0.0
23/07:00pm 27.1 26.3 14.1 44 8.1 N 11 17 6 9 - - 0.0
23/06:30pm 27.6 27.3 14.3 44 8.4 N 9 19 5 10 - - 0.0
23/06:00pm 28.1 28.1 14.3 42 8.7 NNW 7 17 4 9 - - 0.0
23/05:30pm 27.7 26.7 14.7 45 8.2 NNW 13 19 7 10 - - 0.0
23/05:00pm 27.7 26.9 15.0 45 8.1 NNW 13 20 7 11 - - 0.0
23/04:30pm 28.3 27.4 15.9 47 8.0 N 15 24 8 13 - - 0.0
23/04:00pm 28.3 28.6 15.9 47 8.0 NNW 9 20 5 11 - - 0.0
23/03:30pm 27.7 28.5 16.3 49 7.4 NNW 7 15 4 8 - - 0.0
23/03:00pm 27.0 27.4 16.3 52 6.9 NNW 9 19 5 10 - - 0.0
23/02:30pm 27.3 27.9 16.9 53 6.8 NW 9 19 5 10 - - 0.0
23/02:00pm 26.1 26.2 16.4 55 6.3 NNW 11 20 6 11 - - 0.0
23/01:30pm 25.6 25.1 15.9 55 6.2 N 13 19 7 10 - - 0.0
23/01:00pm 25.5 25.4 16.1 56 6.0 NNW 11 22 6 12 - - 0.0
23/12:30pm 25.2 25.1 16.9 60 5.4 NNW 13 22 7 12 - - 0.0
23/12:00pm 24.3 23.7 16.6 62 5.0 N 15 26 8 14 - - 0.0
23/11:30am 24.1 23.6 16.9 64 4.6 N 15 20 8 11 - - 0.0
23/11:00am 23.3 23.1 16.8 67 4.2 NNW 13 20 7 11 - - 0.0
23/10:30am 22.6 22.9 16.9 70 3.7 NNW 11 22 6 12 - - 0.0
23/10:00am 21.4 21.3 16.1 72 3.3 NNW 11 19 6 10 - - 0.0
23/09:30am 21.4 22.0 16.8 75 2.9 NNW 9 20 5 11 - - 0.0
23/09:00am 20.2 19.7 16.0 77 2.6 NNW 13 24 7 13 - - -
23/08:30am 19.1 18.4 15.4 79 2.3 NNW 13 26 7 14 - - -
23/08:00am 18.9 17.8 14.2 74 2.9 NNW 13 22 7 12 - - -
23/07:30am 18.8 17.7 13.0 69 3.4 NNW 11 17 6 9 - - -
23/07:00am 18.1 16.2 13.0 72 3.0 N 15 22 8 12 - - -
23/06:30am 17.6 16.0 12.7 73 2.9 N 13 20 7 11 - - -
23/06:00am 17.6 16.4 12.7 73 2.9 NNE 11 20 6 11 - - -
23/05:30am 17.8 17.1 11.4 66 3.7 NE 6 9 3 5 - - 0.0
23/05:00am 17.4 17.2 11.9 70 3.2 E 4 7 2 4 - - 0.0
23/04:30am 16.4 15.8 11.6 73 2.8 ESE 6 7 3 4 - - 0.0
23/04:00am 17.1 17.3 11.8 71 3.1 ENE 2 6 1 3 - - 0.0
23/03:30am 18.5 18.0 12.7 69 3.4 NE 7 15 4 8 - - 0.0
23/03:00am 18.4 17.4 12.4 68 3.5 NE 9 13 5 7 - - 0.0
23/02:30am 18.2 17.3 10.8 62 4.2 NE 6 13 3 7 - - 0.0
23/02:00am 17.2 16.7 10.8 66 3.6 ENE 4 7 2 4 - - 0.0
23/01:30am 18.5 17.6 10.6 60 4.5 NE 6 11 3 6 - - 0.0
23/01:00am 17.5 16.7 10.9 65 3.8 NE 6 13 3 7 - - 0.0
23/12:30am 16.9 16.5 11.0 68 3.4 ENE 4 7 2 4 - - 0.0
23/12:00am 16.4 15.6 10.9 70 3.1 E 6 7 3 4 - - 0.0
 
Date/Time
EDT
Temp
°C
App
Temp
°C
Dew
Point
°C
Rel
Hum
%
Delta-T
°C
Wind Press
QNH
hPa
Press
MSL
hPa
Rain since
9am
mm
Dir  Spd
km/h
Gust
km/h
Spd
kts
Gust
kts
22/11:30pm 16.8 16.2 11.7 72 2.9 E 6 7 3 4 - - 0.0
22/11:00pm 16.6 16.3 12.6 77 2.3 E 6 9 3 5 - - 0.0
22/10:30pm 17.0 16.6 12.3 74 2.7 E 6 9 3 5 - - 0.0
22/10:00pm 18.0 16.3 12.5 70 3.2 ESE 13 15 7 8 - - 0.0
22/09:30pm 18.0 16.6 12.2 69 3.4 E 11 13 6 7 - - 0.0
22/09:00pm 18.4 18.4 11.2 63 4.1 ENE 2 7 1 4 - - 0.0
22/08:30pm 19.6 18.8 11.1 58 4.9 NE 6 9 3 5 - - 0.0
22/08:00pm 20.4 19.8 11.6 57 5.1 NE 6 11 3 6 - - 0.0
22/07:30pm 22.1 21.5 11.8 52 6.1 NNE 6 9 3 5 - - 0.0
22/07:00pm 23.3 22.9 12.3 50 6.6 NNE 6 7 3 4 - - 0.0
22/06:30pm 23.7 23.4 11.4 46 7.3 ENE 4 7 2 4 - - 0.0
22/06:00pm 23.8 23.1 11.5 46 7.3 E 6 11 3 6 - - 0.0
22/05:30pm 24.2 23.7 12.5 48 7.1 E 7 13 4 7 - - 0.0
22/05:00pm 24.3 23.6 11.9 45 7.4 E 7 15 4 8 - - 0.0
22/04:30pm 24.1 23.5 12.4 48 7.0 ESE 7 13 4 7 - - 0.0
22/04:00pm 23.8 23.0 12.8 50 6.7 SSE 9 13 5 7 - - 0.0
22/03:30pm 23.9 23.2 13.2 51 6.5 ESE 9 15 5 8 - - 0.0
22/03:00pm 23.0 21.7 12.6 52 6.3 E 11 20 6 11 - - 0.0
22/02:30pm 22.5 21.6 12.7 54 5.9 ESE 9 15 5 8 - - 0.0
22/02:00pm 22.2 21.6 13.5 57 5.3 ESE 9 17 5 9 - - 0.0
22/01:30pm 21.3 20.3 12.4 57 5.3 ESE 9 17 5 9 - - 0.0
22/01:00pm 21.0 19.9 13.2 61 4.7 ESE 11 17 6 9 - - 0.0
22/12:30pm 20.8 20.2 13.5 63 4.4 ESE 9 19 5 10 - - 0.0
22/12:00pm 19.8 18.7 13.0 65 4.1 ESE 11 15 6 8 - - 0.0
22/11:30am 19.7 19.2 13.9 69 3.5 E 9 15 5 8 - - 0.0
22/11:00am 18.6 17.5 13.0 70 3.3 ESE 11 19 6 10 - - 0.0
22/10:30am 16.9 14.9 11.4 70 3.2 ESE 13 19 7 10 - - 0.0
22/10:00am 16.7 14.0 11.8 73 2.8 E 17 26 9 14 - - 0.0
22/09:30am 16.1 13.5 11.9 76 2.4 E 17 28 9 15 - - 0.0
22/09:00am 15.0 11.3 11.4 79 2.0 E 22 30 12 16 - - 0.0
22/08:30am 14.0 10.2 11.3 84 1.5 E 22 32 12 17 - - 0.0
22/08:00am 13.4 10.1 11.6 89 1.0 ESE 20 28 11 15 - - 0.0
22/07:30am 12.4 9.2 11.8 96 0.3 ESE 20 33 11 18 - - 0.0
22/07:00am 11.8 7.7 11.3 97 0.3 E 24 32 13 17 - - 0.0
22/06:30am 11.1 7.3 11.1 100 0.0 E 22 26 12 14 - - 0.0
22/06:00am 11.1 7.3 11.1 100 0.0 E 22 28 12 15 - - 0.0
22/05:30am 11.1 6.8 10.9 99 0.1 E 24 32 13 17 - - 0.0
22/05:00am 11.3 7.4 10.8 97 0.3 E 22 30 12 16 - - 0.0
22/04:30am 11.5 7.6 10.7 95 0.4 E 22 32 12 17 - - 0.0
22/04:00am 11.9 8.4 10.8 93 0.6 E 20 32 11 17 - - 0.0
22/03:30am 12.1 7.4 10.7 91 0.8 E 26 39 14 21 - - 0.0
22/03:00am 12.1 7.2 11.2 94 0.5 E 28 39 15 21 - - 0.0
22/02:30am 12.1 7.2 11.3 95 0.4 E 28 39 15 21 - - 0.0
22/02:00am 12.2 7.7 11.4 95 0.4 ESE 26 35 14 19 - - 0.0
22/01:30am 12.2 7.7 11.3 94 0.5 E 26 37 14 20 - - 0.0
22/01:00am 12.1 7.6 11.3 95 0.4 E 26 37 14 20 - - 0.0
22/12:30am 12.2 8.1 11.3 94 0.5 E 24 41 13 22 - - 0.0
22/12:00am 12.4 8.6 11.3 93 0.6 E 22 35 12 19 - - 0.0
 
Date/Time
EDT
Temp
°C
App
Temp
°C
Dew
Point
°C
Rel
Hum
%
Delta-T
°C
Wind Press
QNH
hPa
Press
MSL
hPa
Rain since
9am
mm
Dir  Spd
km/h
Gust
km/h
Spd
kts
Gust
kts
21/11:30pm 12.8 8.5 12.0 95 0.5 ESE 26 39 14 21 - - 0.0
21/11:00pm 13.2 8.9 12.1 93 0.6 ESE 26 39 14 21 - - 0.0
21/10:30pm 13.9 9.8 12.6 92 0.8 E 26 39 14 21 - - 0.0

Other Formats:

Comma delimited format used in spreadsheet applications
http://www.bom.gov.au/fwo/IDN60801/IDN60801.94754.axf

JavaScript Object Notation format (JSON) in row-major order
http://www.bom.gov.au/fwo/IDN60801/IDN60801.94754.json